Corsa — V2PZ2 — position and weather

sailwx.info

Track history (hours):
 
Tides and Currents Weather Stations Pressure Air Temp Water Temp Dewpoint Dewpoint Depression Visibility Wind Speed Wind Dir Waves Ship Positions

Corsa

Last reported at 2014-Oct-03 20:30 UTC. Time now 2014-Oct-20 17:56 UTC.
Position N 31°21' E 032°20'.
Warning: this ship's position is 16 days out of date.

Length 101 m; draft 4.9 m.

Type: Cargo ship. MMSI: 304624000.

Date/timePositionNaut miles runAvg speedWind from/ knotsBaromVisibWave heightAir tempDewpointWater temp
2014-Oct-03 20:30N 31°21' E 032°20'6 5.6
2014-Oct-03 19:21N 31°26' E 032°14'37413.4
2014-Oct-02 15:28N 36°02' E 027°13'1313.4
2014-Oct-02 14:31N 36°12' E 027°02'1913.3
2014-Oct-02 13:04N 36°27' E 026°47'813.2
2014-Oct-02 12:25N 36°33' E 026°40'1413.5
2014-Oct-02 11:25N 36°44' E 026°30'1213.9
2014-Oct-02 10:33N 36°53' E 026°20'1413.7
2014-Oct-02 09:33N 37°05' E 026°11'1313.3
2014-Oct-02 08:33N 37°17' E 026°04'1413.5
2014-Oct-02 07:33N 37°29' E 025°57'1312.8
2014-Oct-02 06:31N 37°42' E 025°52'1313.0
2014-Oct-02 05:31N 37°54' E 025°49'1412.8
2014-Oct-02 04:26N 38°08' E 025°47'1112.6
2014-Oct-02 03:33N 38°19' E 025°45'1313.1
2014-Oct-02 02:33N 38°32' E 025°46'1313.4
2014-Oct-02 01:33N 38°46' E 025°45'18511.5
2014-Oct-01 09:33N 40°53' E 028°39'1311.9
2014-Oct-01 08:26N 40°58' E 028°55'1 0.4
2014-Oct-01 06:08N 40°59' E 028°55'0 0.1
2014-Oct-01 05:26N 40°59' E 028°55'1 1.2
2014-Oct-01 04:33N 40°58' E 028°56'11 9.3
2014-Oct-01 03:20N 41°08' E 029°04'  
2014-Sep-27 09:31N 44°29' E 037°17'1314.0
2014-Sep-27 08:33N 44°31' E 037°36'1312.9
2014-Sep-27 07:33N 44°38' E 037°50'5 4.8
2014-Sep-27 06:33N 44°43' E 037°49'0 0.0
2014-Sep-27 05:33N 44°43' E 037°49'0 0.0
2014-Sep-27 04:33N 44°43' E 037°49'0 0.0
2014-Sep-27 03:33N 44°43' E 037°49'0 0.0
2014-Sep-27 02:33N 44°43' E 037°49'0 0.0
2014-Sep-27 01:33N 44°43' E 037°49'0 0.0
2014-Sep-27 00:33N 44°43' E 037°49'0 0.0
2014-Sep-26 23:33N 44°43' E 037°49'0 0.0
2014-Sep-26 22:33N 44°43' E 037°49'0 0.0
2014-Sep-26 21:33N 44°43' E 037°49'0 0.0
2014-Sep-26 20:33N 44°43' E 037°49'0 0.0
2014-Sep-26 19:33N 44°43' E 037°49'0 0.0
2014-Sep-26 18:33N 44°43' E 037°49'0 0.0
2014-Sep-26 17:33N 44°43' E 037°49'0 0.2
2014-Sep-26 16:33N 44°43' E 037°49'6 6.5
2014-Sep-26 15:33N 44°37' E 037°52'7 7.0
2014-Sep-26 14:33N 44°30' E 037°51'6 5.5
2014-Sep-26 13:33N 44°27' E 037°44'7 6.3
2014-Sep-26 12:30N 44°29' E 037°36'1 0.7
2014-Sep-26 11:33N 44°30' E 037°35'2 1.5
2014-Sep-26 10:33N 44°29' E 037°37'2 1.8
2014-Sep-26 09:27N 44°28' E 037°39'4 4.1
2014-Sep-26 08:33N 44°30' E 037°36'4 1.8
2014-Sep-26 06:33N 44°29' E 037°31'1 1.2
2014-Sep-26 05:33N 44°29' E 037°32'1 1.1
2014-Sep-26 04:33N 44°28' E 037°34'1 0.9
2014-Sep-26 03:30N 44°28' E 037°35'1 0.7
2014-Sep-26 02:33N 44°28' E 037°36'1 0.8
2014-Sep-26 01:10N 44°27' E 037°37'0 0.8
2014-Sep-26 00:33N 44°27' E 037°38'1 0.9
2014-Sep-25 23:09N 44°26' E 037°39'3 5.6
2014-Sep-25 22:32N 44°25' E 037°34'39711.4
2014-Sep-24 11:33N 41°24' E 029°31'1212.1
2014-Sep-24 10:34N 41°17' E 029°18'14 9.8
2014-Sep-24 09:11N 41°09' E 029°04'8 8.5
2014-Sep-24 08:14N 41°01' E 028°60'6 9.4
2014-Sep-24 07:33N 40°55' E 028°58'8 7.9
2014-Sep-24 06:34N 40°47' E 029°00'7 7.4
2014-Sep-24 05:34N 40°46' E 029°10'1010.2
2014-Sep-24 04:34N 40°45' E 029°23'9 9.1
2014-Sep-24 03:32N 40°45' E 029°36'  
Track history (hours):
 
Tides and Currents Weather Stations Pressure Air Temp Water Temp Dewpoint Dewpoint Depression Visibility Wind Speed Wind Dir Waves Ship Positions

Corsa

Last reported at 2014-Oct-03 20:30 UTC. Time now 2014-Oct-20 17:56 UTC.
Position N 31°21' E 032°20'.
Warning: this ship's position is 16 days out of date.

Length 101 m; draft 4.9 m.

Type: Cargo ship. MMSI: 304624000.

Date/timePositionNaut miles runAvg speedWind from/ knotsBaromVisibWave heightAir tempDewpointWater temp
2014-Oct-03 20:30N 31°21' E 032°20'6 5.6
2014-Oct-03 19:21N 31°26' E 032°14'37413.4
2014-Oct-02 15:28N 36°02' E 027°13'1313.4
2014-Oct-02 14:31N 36°12' E 027°02'1913.3
2014-Oct-02 13:04N 36°27' E 026°47'813.2
2014-Oct-02 12:25N 36°33' E 026°40'1413.5
2014-Oct-02 11:25N 36°44' E 026°30'1213.9
2014-Oct-02 10:33N 36°53' E 026°20'1413.7
2014-Oct-02 09:33N 37°05' E 026°11'1313.3
2014-Oct-02 08:33N 37°17' E 026°04'1413.5
2014-Oct-02 07:33N 37°29' E 025°57'1312.8
2014-Oct-02 06:31N 37°42' E 025°52'1313.0
2014-Oct-02 05:31N 37°54' E 025°49'1412.8
2014-Oct-02 04:26N 38°08' E 025°47'1112.6
2014-Oct-02 03:33N 38°19' E 025°45'1313.1
2014-Oct-02 02:33N 38°32' E 025°46'1313.4
2014-Oct-02 01:33N 38°46' E 025°45'18511.5
2014-Oct-01 09:33N 40°53' E 028°39'1311.9
2014-Oct-01 08:26N 40°58' E 028°55'1 0.4
2014-Oct-01 06:08N 40°59' E 028°55'0 0.1
2014-Oct-01 05:26N 40°59' E 028°55'1 1.2
2014-Oct-01 04:33N 40°58' E 028°56'11 9.3
2014-Oct-01 03:20N 41°08' E 029°04'  
2014-Sep-27 09:31N 44°29' E 037°17'1314.0
2014-Sep-27 08:33N 44°31' E 037°36'1312.9
2014-Sep-27 07:33N 44°38' E 037°50'5 4.8
2014-Sep-27 06:33N 44°43' E 037°49'0 0.0
2014-Sep-27 05:33N 44°43' E 037°49'0 0.0
2014-Sep-27 04:33N 44°43' E 037°49'0 0.0
2014-Sep-27 03:33N 44°43' E 037°49'0 0.0
2014-Sep-27 02:33N 44°43' E 037°49'0 0.0
2014-Sep-27 01:33N 44°43' E 037°49'0 0.0
2014-Sep-27 00:33N 44°43' E 037°49'0 0.0
2014-Sep-26 23:33N 44°43' E 037°49'0 0.0
2014-Sep-26 22:33N 44°43' E 037°49'0 0.0
2014-Sep-26 21:33N 44°43' E 037°49'0 0.0
2014-Sep-26 20:33N 44°43' E 037°49'0 0.0
2014-Sep-26 19:33N 44°43' E 037°49'0 0.0
2014-Sep-26 18:33N 44°43' E 037°49'0 0.0
2014-Sep-26 17:33N 44°43' E 037°49'0 0.2
2014-Sep-26 16:33N 44°43' E 037°49'6 6.5
2014-Sep-26 15:33N 44°37' E 037°52'7 7.0
2014-Sep-26 14:33N 44°30' E 037°51'6 5.5
2014-Sep-26 13:33N 44°27' E 037°44'7 6.3
2014-Sep-26 12:30N 44°29' E 037°36'1 0.7
2014-Sep-26 11:33N 44°30' E 037°35'2 1.5
2014-Sep-26 10:33N 44°29' E 037°37'2 1.8
2014-Sep-26 09:27N 44°28' E 037°39'4 4.1
2014-Sep-26 08:33N 44°30' E 037°36'4 1.8
2014-Sep-26 06:33N 44°29' E 037°31'1 1.2
2014-Sep-26 05:33N 44°29' E 037°32'1 1.1
2014-Sep-26 04:33N 44°28' E 037°34'1 0.9
2014-Sep-26 03:30N 44°28' E 037°35'1 0.7
2014-Sep-26 02:33N 44°28' E 037°36'1 0.8
2014-Sep-26 01:10N 44°27' E 037°37'0 0.8
2014-Sep-26 00:33N 44°27' E 037°38'1 0.9
2014-Sep-25 23:09N 44°26' E 037°39'3 5.6
2014-Sep-25 22:32N 44°25' E 037°34'39711.4
2014-Sep-24 11:33N 41°24' E 029°31'1212.1
2014-Sep-24 10:34N 41°17' E 029°18'14 9.8
2014-Sep-24 09:11N 41°09' E 029°04'8 8.5
2014-Sep-24 08:14N 41°01' E 028°60'6 9.4
2014-Sep-24 07:33N 40°55' E 028°58'8 7.9
2014-Sep-24 06:34N 40°47' E 029°00'7 7.4
2014-Sep-24 05:34N 40°46' E 029°10'1010.2
2014-Sep-24 04:34N 40°45' E 029°23'9 9.1
2014-Sep-24 03:32N 40°45' E 029°36'  

Dump ship's entire track history